sensor_id;sensor_type;location;lat;lon;timestamp;P1;durP1;ratioP1;P2;durP2;ratioP2
15071;SDS011;7635;56.696;13.002;2023-04-10T00:00:48;2.70;;;1.80;;
15071;SDS011;7635;56.696;13.002;2023-04-10T00:03:20;1.80;;;1.70;;
15071;SDS011;7635;56.696;13.002;2023-04-10T00:05:47;1.93;;;1.53;;
15071;SDS011;7635;56.696;13.002;2023-04-10T00:08:14;2.00;;;1.80;;
15071;SDS011;7635;56.696;13.002;2023-04-10T00:10:41;1.70;;;1.60;;
15071;SDS011;7635;56.696;13.002;2023-04-10T00:13:07;1.57;;;1.47;;
15071;SDS011;7635;56.696;13.002;2023-04-10T00:15:34;1.80;;;1.70;;
15071;SDS011;7635;56.696;13.002;2023-04-10T00:18:02;1.80;;;1.70;;
15071;SDS011;7635;56.696;13.002;2023-04-10T00:20:29;2.75;;;1.70;;
15071;SDS011;7635;56.696;13.002;2023-04-10T00:22:56;2.40;;;1.80;;
15071;SDS011;7635;56.696;13.002;2023-04-10T00:25:22;2.00;;;1.80;;
15071;SDS011;7635;56.696;13.002;2023-04-10T00:27:50;1.97;;;1.77;;
15071;SDS011;7635;56.696;13.002;2023-04-10T00:30:17;2.70;;;1.60;;
15071;SDS011;7635;56.696;13.002;2023-04-10T00:32:45;1.60;;;1.50;;
15071;SDS011;7635;56.696;13.002;2023-04-10T00:35:13;2.93;;;2.00;;
15071;SDS011;7635;56.696;13.002;2023-04-10T00:37:39;2.50;;;1.80;;
15071;SDS011;7635;56.696;13.002;2023-04-10T00:40:07;1.83;;;1.73;;
15071;SDS011;7635;56.696;13.002;2023-04-10T00:42:34;2.00;;;1.80;;
15071;SDS011;7635;56.696;13.002;2023-04-10T00:45:01;1.83;;;1.63;;
15071;SDS011;7635;56.696;13.002;2023-04-10T00:47:28;2.03;;;1.83;;
15071;SDS011;7635;56.696;13.002;2023-04-10T00:49:54;2.00;;;1.80;;
15071;SDS011;7635;56.696;13.002;2023-04-10T00:52:23;1.90;;;1.80;;
15071;SDS011;7635;56.696;13.002;2023-04-10T00:54:50;2.00;;;1.73;;
15071;SDS011;7635;56.696;13.002;2023-04-10T00:57:17;1.60;;;1.50;;
15071;SDS011;7635;56.696;13.002;2023-04-10T00:59:44;2.03;;;1.70;;
15071;SDS011;7635;56.696;13.002;2023-04-10T01:02:12;2.00;;;1.80;;
15071;SDS011;7635;56.696;13.002;2023-04-10T01:04:39;2.77;;;1.67;;
15071;SDS011;7635;56.696;13.002;2023-04-10T01:07:08;2.23;;;1.60;;
15071;SDS011;7635;56.696;13.002;2023-04-10T01:09:46;1.53;;;1.43;;
15071;SDS011;7635;56.696;13.002;2023-04-10T01:12:22;1.63;;;1.53;;
15071;SDS011;7635;56.696;13.002;2023-04-10T01:15:01;1.70;;;1.60;;
15071;SDS011;7635;56.696;13.002;2023-04-10T01:17:34;1.70;;;1.60;;
15071;SDS011;7635;56.696;13.002;2023-04-10T01:20:07;1.60;;;1.50;;
15071;SDS011;7635;56.696;13.002;2023-04-10T01:22:40;1.70;;;1.60;;
15071;SDS011;7635;56.696;13.002;2023-04-10T01:28:15;2.40;;;1.67;;
15071;SDS011;7635;56.696;13.002;2023-04-10T01:30:51;1.70;;;1.60;;
15071;SDS011;7635;56.696;13.002;2023-04-10T01:33:23;3.80;;;1.77;;
15071;SDS011;7635;56.696;13.002;2023-04-10T01:35:55;1.60;;;1.50;;
15071;SDS011;7635;56.696;13.002;2023-04-10T01:38:25;1.60;;;1.50;;
15071;SDS011;7635;56.696;13.002;2023-04-10T01:40:55;1.50;;;1.40;;
15071;SDS011;7635;56.696;13.002;2023-04-10T01:43:25;1.80;;;1.70;;
15071;SDS011;7635;56.696;13.002;2023-04-10T01:45:55;1.60;;;1.50;;
15071;SDS011;7635;56.696;13.002;2023-04-10T01:48:23;2.13;;;1.40;;
15071;SDS011;7635;56.696;13.002;2023-04-10T01:50:50;1.90;;;1.60;;
15071;SDS011;7635;56.696;13.002;2023-04-10T01:53:19;1.50;;;1.40;;
15071;SDS011;7635;56.696;13.002;2023-04-10T01:55:45;1.40;;;1.30;;
15071;SDS011;7635;56.696;13.002;2023-04-10T01:58:13;1.80;;;1.70;;
15071;SDS011;7635;56.696;13.002;2023-04-10T02:00:40;3.63;;;1.60;;
15071;SDS011;7635;56.696;13.002;2023-04-10T02:03:09;1.93;;;1.57;;
15071;SDS011;7635;56.696;13.002;2023-04-10T02:05:38;1.50;;;1.40;;
15071;SDS011;7635;56.696;13.002;2023-04-10T02:08:14;1.63;;;1.52;;
15071;SDS011;7635;56.696;13.002;2023-04-10T02:10:44;1.60;;;1.50;;
15071;SDS011;7635;56.696;13.002;2023-04-10T02:13:18;3.20;;;1.67;;
15071;SDS011;7635;56.696;13.002;2023-04-10T02:15:46;1.50;;;1.40;;
15071;SDS011;7635;56.696;13.002;2023-04-10T02:18:17;1.20;;;1.10;;
15071;SDS011;7635;56.696;13.002;2023-04-10T02:20:46;1.30;;;1.20;;
15071;SDS011;7635;56.696;13.002;2023-04-10T02:23:14;1.40;;;1.30;;
15071;SDS011;7635;56.696;13.002;2023-04-10T02:25:41;1.47;;;1.30;;
15071;SDS011;7635;56.696;13.002;2023-04-10T02:28:08;1.60;;;1.50;;
15071;SDS011;7635;56.696;13.002;2023-04-10T02:30:35;1.35;;;1.30;;
15071;SDS011;7635;56.696;13.002;2023-04-10T02:33:03;2.73;;;1.57;;
15071;SDS011;7635;56.696;13.002;2023-04-10T02:35:31;1.43;;;1.33;;
15071;SDS011;7635;56.696;13.002;2023-04-10T02:37:58;1.70;;;1.40;;
15071;SDS011;7635;56.696;13.002;2023-04-10T02:40:25;1.47;;;1.37;;
15071;SDS011;7635;56.696;13.002;2023-04-10T02:42:52;1.53;;;1.43;;
15071;SDS011;7635;56.696;13.002;2023-04-10T02:45:18;1.50;;;1.40;;
15071;SDS011;7635;56.696;13.002;2023-04-10T02:47:45;1.60;;;1.50;;
15071;SDS011;7635;56.696;13.002;2023-04-10T02:50:12;1.60;;;1.50;;
15071;SDS011;7635;56.696;13.002;2023-04-10T02:52:40;1.53;;;1.43;;
15071;SDS011;7635;56.696;13.002;2023-04-10T02:55:07;1.10;;;1.10;;
15071;SDS011;7635;56.696;13.002;2023-04-10T02:57:34;1.92;;;1.77;;
15071;SDS011;7635;56.696;13.002;2023-04-10T03:00:01;1.67;;;1.45;;
15071;SDS011;7635;56.696;13.002;2023-04-10T03:02:28;2.80;;;1.37;;
15071;SDS011;7635;56.696;13.002;2023-04-10T03:04:55;1.40;;;1.30;;
15071;SDS011;7635;56.696;13.002;2023-04-10T03:07:22;1.83;;;1.60;;
15071;SDS011;7635;56.696;13.002;2023-04-10T03:09:50;1.20;;;1.20;;
15071;SDS011;7635;56.696;13.002;2023-04-10T03:12:17;1.30;;;1.20;;
15071;SDS011;7635;56.696;13.002;2023-04-10T03:14:44;1.43;;;1.30;;
15071;SDS011;7635;56.696;13.002;2023-04-10T03:17:11;1.40;;;1.30;;
15071;SDS011;7635;56.696;13.002;2023-04-10T03:19:37;1.30;;;1.20;;
15071;SDS011;7635;56.696;13.002;2023-04-10T03:22:04;1.33;;;1.23;;
15071;SDS011;7635;56.696;13.002;2023-04-10T03:24:31;1.37;;;1.27;;
15071;SDS011;7635;56.696;13.002;2023-04-10T03:26:59;1.40;;;1.30;;
15071;SDS011;7635;56.696;13.002;2023-04-10T03:29:25;1.40;;;1.30;;
15071;SDS011;7635;56.696;13.002;2023-04-10T03:31:52;1.40;;;1.30;;
15071;SDS011;7635;56.696;13.002;2023-04-10T03:34:18;1.90;;;1.47;;
15071;SDS011;7635;56.696;13.002;2023-04-10T03:36:45;1.60;;;1.40;;
15071;SDS011;7635;56.696;13.002;2023-04-10T03:39:12;1.23;;;1.20;;
15071;SDS011;7635;56.696;13.002;2023-04-10T03:41:39;1.50;;;1.40;;
15071;SDS011;7635;56.696;13.002;2023-04-10T03:44:07;1.37;;;1.27;;
15071;SDS011;7635;56.696;13.002;2023-04-10T03:46:33;1.47;;;1.37;;
15071;SDS011;7635;56.696;13.002;2023-04-10T03:49:00;1.27;;;1.17;;
15071;SDS011;7635;56.696;13.002;2023-04-10T03:51:27;1.30;;;1.20;;
15071;SDS011;7635;56.696;13.002;2023-04-10T03:53:54;3.10;;;1.50;;
15071;SDS011;7635;56.696;13.002;2023-04-10T03:56:20;1.70;;;1.50;;
15071;SDS011;7635;56.696;13.002;2023-04-10T03:58:47;1.20;;;1.20;;
15071;SDS011;7635;56.696;13.002;2023-04-10T04:01:15;1.50;;;1.40;;
15071;SDS011;7635;56.696;13.002;2023-04-10T04:03:42;1.40;;;1.20;;
15071;SDS011;7635;56.696;13.002;2023-04-10T04:06:08;1.73;;;1.20;;
15071;SDS011;7635;56.696;13.002;2023-04-10T04:08:35;1.33;;;1.23;;
15071;SDS011;7635;56.696;13.002;2023-04-10T04:11:02;1.20;;;1.20;;
15071;SDS011;7635;56.696;13.002;2023-04-10T04:13:29;1.40;;;1.23;;
15071;SDS011;7635;56.696;13.002;2023-04-10T04:15:56;1.50;;;1.40;;
15071;SDS011;7635;56.696;13.002;2023-04-10T04:18:24;1.23;;;1.13;;
15071;SDS011;7635;56.696;13.002;2023-04-10T04:20:51;1.33;;;1.23;;
15071;SDS011;7635;56.696;13.002;2023-04-10T04:23:18;1.30;;;1.20;;
15071;SDS011;7635;56.696;13.002;2023-04-10T04:25:44;1.30;;;1.20;;
15071;SDS011;7635;56.696;13.002;2023-04-10T04:28:11;1.57;;;1.47;;
15071;SDS011;7635;56.696;13.002;2023-04-10T04:30:40;1.30;;;1.20;;
15071;SDS011;7635;56.696;13.002;2023-04-10T04:33:06;1.27;;;1.17;;
15071;SDS011;7635;56.696;13.002;2023-04-10T04:35:34;2.30;;;1.50;;
15071;SDS011;7635;56.696;13.002;2023-04-10T04:38:01;3.22;;;1.30;;
15071;SDS011;7635;56.696;13.002;2023-04-10T04:40:28;1.50;;;1.20;;
15071;SDS011;7635;56.696;13.002;2023-04-10T04:42:54;1.17;;;1.10;;
15071;SDS011;7635;56.696;13.002;2023-04-10T04:45:21;1.70;;;1.43;;
15071;SDS011;7635;56.696;13.002;2023-04-10T04:47:48;1.50;;;1.40;;
15071;SDS011;7635;56.696;13.002;2023-04-10T04:50:15;1.37;;;1.27;;
15071;SDS011;7635;56.696;13.002;2023-04-10T04:52:43;1.17;;;1.10;;
15071;SDS011;7635;56.696;13.002;2023-04-10T04:55:10;1.33;;;1.23;;
15071;SDS011;7635;56.696;13.002;2023-04-10T04:57:37;2.03;;;1.30;;
15071;SDS011;7635;56.696;13.002;2023-04-10T05:00:04;2.77;;;1.37;;
15071;SDS011;7635;56.696;13.002;2023-04-10T05:02:31;1.40;;;1.30;;
15071;SDS011;7635;56.696;13.002;2023-04-10T05:04:58;0.90;;;0.90;;
15071;SDS011;7635;56.696;13.002;2023-04-10T05:07:25;1.40;;;1.30;;
15071;SDS011;7635;56.696;13.002;2023-04-10T05:09:53;1.40;;;1.30;;
15071;SDS011;7635;56.696;13.002;2023-04-10T05:12:20;1.30;;;1.20;;
15071;SDS011;7635;56.696;13.002;2023-04-10T05:14:46;1.40;;;1.30;;
15071;SDS011;7635;56.696;13.002;2023-04-10T05:17:13;1.50;;;1.40;;
15071;SDS011;7635;56.696;13.002;2023-04-10T05:19:40;2.10;;;1.40;;
15071;SDS011;7635;56.696;13.002;2023-04-10T05:22:07;1.50;;;1.40;;
15071;SDS011;7635;56.696;13.002;2023-04-10T05:24:34;1.58;;;1.35;;
15071;SDS011;7635;56.696;13.002;2023-04-10T05:27:02;1.87;;;1.70;;
15071;SDS011;7635;56.696;13.002;2023-04-10T05:29:29;1.57;;;1.47;;
15071;SDS011;7635;56.696;13.002;2023-04-10T05:31:55;1.73;;;1.63;;
15071;SDS011;7635;56.696;13.002;2023-04-10T05:34:22;2.20;;;1.97;;
15071;SDS011;7635;56.696;13.002;2023-04-10T05:36:49;1.83;;;1.50;;
15071;SDS011;7635;56.696;13.002;2023-04-10T05:39:16;2.00;;;1.70;;
15071;SDS011;7635;56.696;13.002;2023-04-10T05:41:42;2.13;;;1.80;;
15071;SDS011;7635;56.696;13.002;2023-04-10T05:44:10;1.77;;;1.57;;
15071;SDS011;7635;56.696;13.002;2023-04-10T05:46:37;2.60;;;1.37;;
15071;SDS011;7635;56.696;13.002;2023-04-10T05:49:04;2.90;;;1.80;;
15071;SDS011;7635;56.696;13.002;2023-04-10T05:51:30;2.07;;;1.83;;
15071;SDS011;7635;56.696;13.002;2023-04-10T05:53:57;2.13;;;1.80;;
15071;SDS011;7635;56.696;13.002;2023-04-10T05:56:24;2.70;;;1.80;;
15071;SDS011;7635;56.696;13.002;2023-04-10T05:58:50;3.80;;;1.90;;
15071;SDS011;7635;56.696;13.002;2023-04-10T06:01:18;2.10;;;1.77;;
15071;SDS011;7635;56.696;13.002;2023-04-10T06:03:45;3.57;;;2.00;;
15071;SDS011;7635;56.696;13.002;2023-04-10T06:06:12;2.23;;;2.00;;
15071;SDS011;7635;56.696;13.002;2023-04-10T06:08:38;2.90;;;1.90;;
15071;SDS011;7635;56.696;13.002;2023-04-10T06:11:05;3.10;;;2.27;;
15071;SDS011;7635;56.696;13.002;2023-04-10T06:13:32;3.27;;;2.40;;
15071;SDS011;7635;56.696;13.002;2023-04-10T06:15:58;2.70;;;1.77;;
15071;SDS011;7635;56.696;13.002;2023-04-10T06:18:27;2.53;;;1.80;;
15071;SDS011;7635;56.696;13.002;2023-04-10T06:20:53;2.73;;;1.87;;
15071;SDS011;7635;56.696;13.002;2023-04-10T06:23:22;2.80;;;2.27;;
15071;SDS011;7635;56.696;13.002;2023-04-10T06:25:48;2.93;;;2.20;;
15071;SDS011;7635;56.696;13.002;2023-04-10T06:28:15;2.30;;;1.90;;
15071;SDS011;7635;56.696;13.002;2023-04-10T06:30:42;2.03;;;1.67;;
15071;SDS011;7635;56.696;13.002;2023-04-10T06:33:08;2.53;;;1.73;;
15071;SDS011;7635;56.696;13.002;2023-04-10T06:35:36;1.93;;;1.77;;
15071;SDS011;7635;56.696;13.002;2023-04-10T06:38:03;1.60;;;1.50;;
15071;SDS011;7635;56.696;13.002;2023-04-10T06:40:30;1.47;;;1.37;;
15071;SDS011;7635;56.696;13.002;2023-04-10T06:42:58;1.83;;;1.40;;
15071;SDS011;7635;56.696;13.002;2023-04-10T06:45:24;1.53;;;1.43;;
15071;SDS011;7635;56.696;13.002;2023-04-10T06:47:51;1.93;;;1.50;;
15071;SDS011;7635;56.696;13.002;2023-04-10T06:50:18;1.73;;;1.63;;
15071;SDS011;7635;56.696;13.002;2023-04-10T06:52:46;1.70;;;1.60;;
15071;SDS011;7635;56.696;13.002;2023-04-10T06:55:13;1.80;;;1.60;;
15071;SDS011;7635;56.696;13.002;2023-04-10T06:57:41;2.70;;;1.50;;
15071;SDS011;7635;56.696;13.002;2023-04-10T07:00:08;1.50;;;1.40;;
15071;SDS011;7635;56.696;13.002;2023-04-10T07:02:35;1.57;;;1.47;;
15071;SDS011;7635;56.696;13.002;2023-04-10T07:05:02;1.77;;;1.43;;
15071;SDS011;7635;56.696;13.002;2023-04-10T07:07:29;1.90;;;1.50;;
15071;SDS011;7635;56.696;13.002;2023-04-10T07:09:58;1.70;;;1.50;;
15071;SDS011;7635;56.696;13.002;2023-04-10T07:12:24;1.30;;;1.20;;
15071;SDS011;7635;56.696;13.002;2023-04-10T07:14:51;1.93;;;1.73;;
15071;SDS011;7635;56.696;13.002;2023-04-10T07:17:18;1.73;;;1.63;;
15071;SDS011;7635;56.696;13.002;2023-04-10T07:19:45;2.17;;;1.60;;
15071;SDS011;7635;56.696;13.002;2023-04-10T07:22:12;1.57;;;1.47;;
15071;SDS011;7635;56.696;13.002;2023-04-10T07:24:38;1.50;;;1.40;;
15071;SDS011;7635;56.696;13.002;2023-04-10T07:27:06;1.47;;;1.37;;
15071;SDS011;7635;56.696;13.002;2023-04-10T07:29:33;2.23;;;1.40;;
15071;SDS011;7635;56.696;13.002;2023-04-10T07:32:00;1.97;;;1.60;;
15071;SDS011;7635;56.696;13.002;2023-04-10T07:34:26;2.80;;;1.60;;
15071;SDS011;7635;56.696;13.002;2023-04-10T07:36:53;3.17;;;1.90;;
15071;SDS011;7635;56.696;13.002;2023-04-10T07:39:20;2.03;;;1.50;;
15071;SDS011;7635;56.696;13.002;2023-04-10T07:41:47;1.60;;;1.50;;
15071;SDS011;7635;56.696;13.002;2023-04-10T07:44:15;2.43;;;1.67;;
15071;SDS011;7635;56.696;13.002;2023-04-10T07:46:42;2.40;;;1.60;;
15071;SDS011;7635;56.696;13.002;2023-04-10T07:49:09;1.80;;;1.40;;
15071;SDS011;7635;56.696;13.002;2023-04-10T07:51:36;1.47;;;1.30;;
15071;SDS011;7635;56.696;13.002;2023-04-10T07:54:03;1.70;;;1.60;;
15071;SDS011;7635;56.696;13.002;2023-04-10T07:56:30;1.40;;;1.30;;
15071;SDS011;7635;56.696;13.002;2023-04-10T07:58:58;2.90;;;1.70;;
15071;SDS011;7635;56.696;13.002;2023-04-10T08:01:26;1.53;;;1.43;;
15071;SDS011;7635;56.696;13.002;2023-04-10T08:03:53;1.50;;;1.40;;
15071;SDS011;7635;56.696;13.002;2023-04-10T08:06:20;1.60;;;1.50;;
15071;SDS011;7635;56.696;13.002;2023-04-10T08:08:47;1.57;;;1.47;;
15071;SDS011;7635;56.696;13.002;2023-04-10T08:11:21;1.10;;;1.00;;
15071;SDS011;7635;56.696;13.002;2023-04-10T08:13:50;1.50;;;1.40;;
15071;SDS011;7635;56.696;13.002;2023-04-10T08:16:17;2.30;;;1.33;;
15071;SDS011;7635;56.696;13.002;2023-04-10T08:18:47;1.33;;;1.23;;
15071;SDS011;7635;56.696;13.002;2023-04-10T08:21:13;1.83;;;1.50;;
15071;SDS011;7635;56.696;13.002;2023-04-10T08:23:40;1.83;;;1.30;;
15071;SDS011;7635;56.696;13.002;2023-04-10T08:26:07;1.60;;;1.50;;
15071;SDS011;7635;56.696;13.002;2023-04-10T08:28:33;1.20;;;1.10;;
15071;SDS011;7635;56.696;13.002;2023-04-10T08:31:00;2.20;;;1.60;;
15071;SDS011;7635;56.696;13.002;2023-04-10T08:33:27;1.70;;;1.50;;
15071;SDS011;7635;56.696;13.002;2023-04-10T08:35:55;1.63;;;1.20;;
15071;SDS011;7635;56.696;13.002;2023-04-10T08:38:21;1.30;;;1.20;;
15071;SDS011;7635;56.696;13.002;2023-04-10T08:40:49;1.90;;;1.70;;
15071;SDS011;7635;56.696;13.002;2023-04-10T08:43:15;1.30;;;1.30;;
15071;SDS011;7635;56.696;13.002;2023-04-10T08:45:42;1.27;;;1.20;;
15071;SDS011;7635;56.696;13.002;2023-04-10T08:48:11;1.30;;;1.20;;
15071;SDS011;7635;56.696;13.002;2023-04-10T08:50:40;2.07;;;1.33;;
15071;SDS011;7635;56.696;13.002;2023-04-10T08:53:12;1.50;;;1.40;;
15071;SDS011;7635;56.696;13.002;2023-04-10T08:55:40;1.50;;;1.30;;
15071;SDS011;7635;56.696;13.002;2023-04-10T08:58:07;1.97;;;1.20;;
15071;SDS011;7635;56.696;13.002;2023-04-10T09:00:38;1.50;;;1.40;;
15071;SDS011;7635;56.696;13.002;2023-04-10T09:03:05;1.40;;;1.30;;
15071;SDS011;7635;56.696;13.002;2023-04-10T09:05:35;1.10;;;1.10;;
15071;SDS011;7635;56.696;13.002;2023-04-10T09:08:02;1.20;;;1.20;;
15071;SDS011;7635;56.696;13.002;2023-04-10T09:10:30;2.20;;;1.43;;
15071;SDS011;7635;56.696;13.002;2023-04-10T09:12:57;0.90;;;0.90;;
15071;SDS011;7635;56.696;13.002;2023-04-10T09:15:24;1.37;;;1.27;;
15071;SDS011;7635;56.696;13.002;2023-04-10T09:17:55;2.23;;;1.27;;
15071;SDS011;7635;56.696;13.002;2023-04-10T09:20:23;1.33;;;1.13;;
15071;SDS011;7635;56.696;13.002;2023-04-10T09:22:51;1.50;;;1.40;;
15071;SDS011;7635;56.696;13.002;2023-04-10T09:25:27;1.83;;;1.50;;
15071;SDS011;7635;56.696;13.002;2023-04-10T09:27:59;1.70;;;1.60;;
15071;SDS011;7635;56.696;13.002;2023-04-10T09:30:34;1.07;;;1.07;;
15071;SDS011;7635;56.696;13.002;2023-04-10T09:33:10;1.37;;;1.27;;
15071;SDS011;7635;56.696;13.002;2023-04-10T09:35:46;1.10;;;1.00;;
15071;SDS011;7635;56.696;13.002;2023-04-10T09:38:14;1.10;;;1.10;;
15071;SDS011;7635;56.696;13.002;2023-04-10T09:40:42;1.40;;;1.20;;
15071;SDS011;7635;56.696;13.002;2023-04-10T09:43:17;1.40;;;1.30;;
15071;SDS011;7635;56.696;13.002;2023-04-10T09:45:48;1.33;;;1.20;;
15071;SDS011;7635;56.696;13.002;2023-04-10T09:48:16;1.43;;;1.20;;
15071;SDS011;7635;56.696;13.002;2023-04-10T09:50:43;1.20;;;1.20;;
15071;SDS011;7635;56.696;13.002;2023-04-10T09:53:11;1.30;;;1.20;;
15071;SDS011;7635;56.696;13.002;2023-04-10T09:55:39;1.17;;;1.17;;
15071;SDS011;7635;56.696;13.002;2023-04-10T09:58:06;1.30;;;1.20;;
15071;SDS011;7635;56.696;13.002;2023-04-10T10:00:37;1.73;;;1.33;;
15071;SDS011;7635;56.696;13.002;2023-04-10T10:03:06;1.37;;;1.27;;
15071;SDS011;7635;56.696;13.002;2023-04-10T10:05:34;2.40;;;1.33;;
15071;SDS011;7635;56.696;13.002;2023-04-10T10:08:02;1.20;;;1.20;;
15071;SDS011;7635;56.696;13.002;2023-04-10T10:10:29;1.50;;;1.40;;
15071;SDS011;7635;56.696;13.002;2023-04-10T10:12:58;1.73;;;1.47;;
15071;SDS011;7635;56.696;13.002;2023-04-10T10:15:28;1.70;;;1.40;;
15071;SDS011;7635;56.696;13.002;2023-04-10T10:18:05;1.30;;;1.20;;
15071;SDS011;7635;56.696;13.002;2023-04-10T10:20:37;1.10;;;1.10;;
15071;SDS011;7635;56.696;13.002;2023-04-10T10:23:07;1.57;;;1.47;;
15071;SDS011;7635;56.696;13.002;2023-04-10T10:25:34;1.37;;;1.27;;
15071;SDS011;7635;56.696;13.002;2023-04-10T10:28:01;1.27;;;1.17;;
15071;SDS011;7635;56.696;13.002;2023-04-10T10:30:29;1.40;;;1.30;;
15071;SDS011;7635;56.696;13.002;2023-04-10T10:32:57;1.50;;;1.40;;
15071;SDS011;7635;56.696;13.002;2023-04-10T10:35:26;1.93;;;1.50;;
15071;SDS011;7635;56.696;13.002;2023-04-10T10:37:53;1.40;;;1.30;;
15071;SDS011;7635;56.696;13.002;2023-04-10T10:40:22;1.53;;;1.43;;
15071;SDS011;7635;56.696;13.002;2023-04-10T10:42:55;1.53;;;1.40;;
15071;SDS011;7635;56.696;13.002;2023-04-10T10:45:29;1.57;;;1.40;;
15071;SDS011;7635;56.696;13.002;2023-04-10T10:47:59;1.53;;;1.43;;
15071;SDS011;7635;56.696;13.002;2023-04-10T10:50:31;1.20;;;1.10;;
15071;SDS011;7635;56.696;13.002;2023-04-10T10:53:29;1.33;;;1.23;;
15071;SDS011;7635;56.696;13.002;2023-04-10T10:59:00;1.60;;;1.50;;
15071;SDS011;7635;56.696;13.002;2023-04-10T11:01:27;2.27;;;1.60;;
15071;SDS011;7635;56.696;13.002;2023-04-10T11:03:54;1.50;;;1.40;;
15071;SDS011;7635;56.696;13.002;2023-04-10T11:06:47;1.77;;;1.67;;
15071;SDS011;7635;56.696;13.002;2023-04-10T11:12:12;1.97;;;1.60;;
15071;SDS011;7635;56.696;13.002;2023-04-10T11:14:39;2.50;;;1.60;;
15071;SDS011;7635;56.696;13.002;2023-04-10T11:17:08;2.20;;;2.00;;
15071;SDS011;7635;56.696;13.002;2023-04-10T11:22:31;2.10;;;1.80;;
15071;SDS011;7635;56.696;13.002;2023-04-10T11:25:19;2.87;;;1.40;;
15071;SDS011;7635;56.696;13.002;2023-04-10T11:27:46;2.20;;;1.80;;
15071;SDS011;7635;56.696;13.002;2023-04-10T11:30:32;2.23;;;1.70;;
15071;SDS011;7635;56.696;13.002;2023-04-10T11:33:01;1.90;;;1.80;;
15071;SDS011;7635;56.696;13.002;2023-04-10T11:35:28;1.60;;;1.30;;
15071;SDS011;7635;56.696;13.002;2023-04-10T11:38:11;1.90;;;1.80;;
15071;SDS011;7635;56.696;13.002;2023-04-10T11:40:57;4.23;;;1.90;;
15071;SDS011;7635;56.696;13.002;2023-04-10T11:43:28;2.67;;;2.20;;
15071;SDS011;7635;56.696;13.002;2023-04-10T11:46:03;2.13;;;1.67;;
15071;SDS011;7635;56.696;13.002;2023-04-10T11:48:31;1.50;;;1.40;;
15071;SDS011;7635;56.696;13.002;2023-04-10T11:51:05;1.60;;;1.50;;
15071;SDS011;7635;56.696;13.002;2023-04-10T11:53:32;1.97;;;1.77;;
15071;SDS011;7635;56.696;13.002;2023-04-10T11:56:00;2.90;;;2.07;;
15071;SDS011;7635;56.696;13.002;2023-04-10T11:58:28;4.07;;;2.20;;
15071;SDS011;7635;56.696;13.002;2023-04-10T12:00:56;2.23;;;1.90;;
15071;SDS011;7635;56.696;13.002;2023-04-10T12:03:31;2.07;;;1.87;;
15071;SDS011;7635;56.696;13.002;2023-04-10T12:06:02;1.83;;;1.70;;
15071;SDS011;7635;56.696;13.002;2023-04-10T12:08:29;2.07;;;1.97;;
15071;SDS011;7635;56.696;13.002;2023-04-10T12:10:57;2.10;;;1.77;;
15071;SDS011;7635;56.696;13.002;2023-04-10T12:13:25;1.90;;;1.70;;
15071;SDS011;7635;56.696;13.002;2023-04-10T12:15:52;2.07;;;1.60;;
15071;SDS011;7635;56.696;13.002;2023-04-10T12:18:19;1.97;;;1.43;;
15071;SDS011;7635;56.696;13.002;2023-04-10T12:20:47;4.07;;;2.03;;
15071;SDS011;7635;56.696;13.002;2023-04-10T12:23:15;2.23;;;1.83;;
15071;SDS011;7635;56.696;13.002;2023-04-10T12:25:42;1.73;;;1.63;;
15071;SDS011;7635;56.696;13.002;2023-04-10T12:28:15;2.27;;;1.70;;
15071;SDS011;7635;56.696;13.002;2023-04-10T12:30:46;2.73;;;2.20;;
15071;SDS011;7635;56.696;13.002;2023-04-10T12:33:18;2.00;;;1.90;;
15071;SDS011;7635;56.696;13.002;2023-04-10T12:35:46;2.87;;;2.20;;
15071;SDS011;7635;56.696;13.002;2023-04-10T12:38:12;2.10;;;1.90;;
15071;SDS011;7635;56.696;13.002;2023-04-10T12:43:31;1.80;;;1.70;;
15071;SDS011;7635;56.696;13.002;2023-04-10T12:46:00;1.60;;;1.50;;
15071;SDS011;7635;56.696;13.002;2023-04-10T12:48:27;1.90;;;1.80;;
15071;SDS011;7635;56.696;13.002;2023-04-10T12:50:53;1.60;;;1.50;;
15071;SDS011;7635;56.696;13.002;2023-04-10T12:53:20;3.80;;;1.90;;
15071;SDS011;7635;56.696;13.002;2023-04-10T12:55:57;3.40;;;1.70;;
15071;SDS011;7635;56.696;13.002;2023-04-10T12:58:25;1.47;;;1.37;;
15071;SDS011;7635;56.696;13.002;2023-04-10T13:00:56;1.80;;;1.70;;
15071;SDS011;7635;56.696;13.002;2023-04-10T13:03:25;1.80;;;1.70;;
15071;SDS011;7635;56.696;13.002;2023-04-10T13:05:52;3.20;;;2.00;;
15071;SDS011;7635;56.696;13.002;2023-04-10T13:08:19;2.53;;;1.80;;
15071;SDS011;7635;56.696;13.002;2023-04-10T13:10:46;1.67;;;1.57;;
15071;SDS011;7635;56.696;13.002;2023-04-10T13:13:13;1.00;;;1.00;;
15071;SDS011;7635;56.696;13.002;2023-04-10T13:15:40;1.60;;;1.50;;
15071;SDS011;7635;56.696;13.002;2023-04-10T13:18:06;1.50;;;1.40;;
15071;SDS011;7635;56.696;13.002;2023-04-10T13:20:35;1.40;;;1.30;;
15071;SDS011;7635;56.696;13.002;2023-04-10T13:23:03;1.47;;;1.37;;
15071;SDS011;7635;56.696;13.002;2023-04-10T13:25:30;1.53;;;1.43;;
15071;SDS011;7635;56.696;13.002;2023-04-10T13:27:58;1.70;;;1.60;;
15071;SDS011;7635;56.696;13.002;2023-04-10T13:30:25;2.13;;;1.53;;
15071;SDS011;7635;56.696;13.002;2023-04-10T13:32:52;1.30;;;1.20;;
15071;SDS011;7635;56.696;13.002;2023-04-10T13:35:19;2.30;;;1.50;;
15071;SDS011;7635;56.696;13.002;2023-04-10T13:37:47;1.60;;;1.27;;
15071;SDS011;7635;56.696;13.002;2023-04-10T13:40:17;1.40;;;1.30;;
15071;SDS011;7635;56.696;13.002;2023-04-10T13:42:44;1.40;;;1.30;;
15071;SDS011;7635;56.696;13.002;2023-04-10T13:45:11;1.30;;;1.20;;
15071;SDS011;7635;56.696;13.002;2023-04-10T13:47:37;1.43;;;1.33;;
15071;SDS011;7635;56.696;13.002;2023-04-10T13:50:04;1.50;;;1.40;;
15071;SDS011;7635;56.696;13.002;2023-04-10T13:52:32;2.30;;;1.50;;
15071;SDS011;7635;56.696;13.002;2023-04-10T13:55:00;1.83;;;1.60;;
15071;SDS011;7635;56.696;13.002;2023-04-10T13:57:26;1.60;;;1.50;;
15071;SDS011;7635;56.696;13.002;2023-04-10T13:59:53;1.50;;;1.40;;
15071;SDS011;7635;56.696;13.002;2023-04-10T14:02:20;1.83;;;1.60;;
15071;SDS011;7635;56.696;13.002;2023-04-10T14:04:46;1.43;;;1.13;;
15071;SDS011;7635;56.696;13.002;2023-04-10T14:07:15;1.53;;;1.43;;
15071;SDS011;7635;56.696;13.002;2023-04-10T14:09:41;1.20;;;1.20;;
15071;SDS011;7635;56.696;13.002;2023-04-10T14:12:11;3.13;;;2.13;;
15071;SDS011;7635;56.696;13.002;2023-04-10T14:14:40;1.73;;;1.63;;
15071;SDS011;7635;56.696;13.002;2023-04-10T14:17:06;4.43;;;1.27;;
15071;SDS011;7635;56.696;13.002;2023-04-10T14:19:33;1.43;;;1.30;;
15071;SDS011;7635;56.696;13.002;2023-04-10T14:22:00;1.43;;;1.30;;
15071;SDS011;7635;56.696;13.002;2023-04-10T14:24:27;2.53;;;1.43;;
15071;SDS011;7635;56.696;13.002;2023-04-10T14:26:54;1.20;;;1.13;;
15071;SDS011;7635;56.696;13.002;2023-04-10T14:29:23;1.70;;;1.47;;
15071;SDS011;7635;56.696;13.002;2023-04-10T14:31:50;1.57;;;1.23;;
15071;SDS011;7635;56.696;13.002;2023-04-10T14:34:17;1.60;;;1.50;;
15071;SDS011;7635;56.696;13.002;2023-04-10T14:36:43;1.90;;;1.70;;
15071;SDS011;7635;56.696;13.002;2023-04-10T14:39:10;1.53;;;1.40;;
15071;SDS011;7635;56.696;13.002;2023-04-10T14:41:37;2.03;;;1.57;;
15071;SDS011;7635;56.696;13.002;2023-04-10T14:44:04;2.20;;;1.40;;
15071;SDS011;7635;56.696;13.002;2023-04-10T14:46:32;1.00;;;1.00;;
15071;SDS011;7635;56.696;13.002;2023-04-10T14:48:58;1.93;;;1.57;;
15071;SDS011;7635;56.696;13.002;2023-04-10T14:51:25;1.80;;;1.60;;
15071;SDS011;7635;56.696;13.002;2023-04-10T14:53:53;1.40;;;1.30;;
15071;SDS011;7635;56.696;13.002;2023-04-10T14:56:19;1.40;;;1.30;;
15071;SDS011;7635;56.696;13.002;2023-04-10T14:58:46;1.53;;;1.43;;
15071;SDS011;7635;56.696;13.002;2023-04-10T15:01:13;3.00;;;1.37;;
15071;SDS011;7635;56.696;13.002;2023-04-10T15:03:44;1.50;;;1.40;;
15071;SDS011;7635;56.696;13.002;2023-04-10T15:06:12;2.77;;;1.63;;
15071;SDS011;7635;56.696;13.002;2023-04-10T15:08:39;1.50;;;1.40;;